createdAt,value
2018-07-21T00:00:39.559Z,43.00
2018-07-21T00:03:15.935Z,42.00
2018-07-21T00:05:52.188Z,42.10
2018-07-21T00:08:28.544Z,42.30
2018-07-21T00:11:04.911Z,42.80
2018-07-21T00:13:41.335Z,42.70
2018-07-21T00:16:17.851Z,43.10
2018-07-21T00:18:54.249Z,43.10
2018-07-21T00:21:30.627Z,43.30
2018-07-21T00:24:06.967Z,43.30
2018-07-21T00:26:48.295Z,43.50
2018-07-21T00:29:24.480Z,42.80
2018-07-21T00:32:00.737Z,42.80
2018-07-21T00:34:37.145Z,42.60
2018-07-21T00:37:13.439Z,41.90
2018-07-21T00:39:49.808Z,42.30
2018-07-21T00:42:26.235Z,43.20
2018-07-21T00:45:02.896Z,42.60
2018-07-21T00:47:39.188Z,41.80
2018-07-21T00:50:15.567Z,44.10
2018-07-21T00:55:27.710Z,43.60
2018-07-21T00:58:04.005Z,43.80
2018-07-21T01:00:40.311Z,44.10
2018-07-21T01:03:16.571Z,45.10
2018-07-21T01:05:52.862Z,45.00
2018-07-21T01:08:29.075Z,44.90
2018-07-21T01:11:05.537Z,44.70
2018-07-21T01:13:41.992Z,44.90
2018-07-21T01:16:18.272Z,44.50
2018-07-21T01:18:54.448Z,44.70
2018-07-21T01:21:30.717Z,44.80
2018-07-21T01:24:07.187Z,44.80
2018-07-21T01:26:43.459Z,45.30
2018-07-21T01:29:19.798Z,44.90
2018-07-21T01:31:56.083Z,45.30
2018-07-21T01:34:32.399Z,47.00
2018-07-21T01:37:08.829Z,48.00
2018-07-21T01:39:45.131Z,47.90
2018-07-21T01:42:21.445Z,48.00
2018-07-21T01:44:57.644Z,48.70
2018-07-21T01:47:34.695Z,48.90
2018-07-21T01:50:11.039Z,48.90
2018-07-21T01:52:47.347Z,49.20
2018-07-21T01:55:23.624Z,47.40
2018-07-21T01:57:59.984Z,46.80
2018-07-21T02:00:36.429Z,47.20
2018-07-21T02:03:12.701Z,47.40
2018-07-21T02:05:49.038Z,46.90
2018-07-21T02:08:25.448Z,46.80
2018-07-21T02:11:01.836Z,47.30
2018-07-21T02:13:38.180Z,48.70
2018-07-21T02:16:14.517Z,49.60
2018-07-21T02:18:50.921Z,49.40
2018-07-21T02:21:27.260Z,49.90
2018-07-21T02:24:03.456Z,48.20
2018-07-21T02:26:39.834Z,48.50
2018-07-21T02:29:16.204Z,49.70
2018-07-21T02:31:52.581Z,49.70
2018-07-21T02:34:28.885Z,50.40
2018-07-21T02:37:05.232Z,50.90
2018-07-21T02:39:41.616Z,51.00
2018-07-21T02:42:18.032Z,51.90
2018-07-21T02:44:54.347Z,51.50
2018-07-21T02:47:30.695Z,51.60
2018-07-21T02:50:07.291Z,51.90
2018-07-21T02:52:43.760Z,51.90
2018-07-21T02:55:20.020Z,52.30
2018-07-21T02:57:56.360Z,53.10
2018-07-21T03:00:32.751Z,54.60
2018-07-21T03:03:09.199Z,54.00
2018-07-21T03:05:45.587Z,53.10
2018-07-21T03:08:21.901Z,56.90
2018-07-21T03:10:58.097Z,56.00
2018-07-21T03:13:34.545Z,56.30
2018-07-21T03:16:10.936Z,56.70
2018-07-21T03:18:47.328Z,56.80
2018-07-21T03:21:23.704Z,56.80
2018-07-21T03:24:00.049Z,56.70
2018-07-21T03:26:36.323Z,57.60
2018-07-21T03:29:12.633Z,58.70
2018-07-21T03:31:48.936Z,59.40
2018-07-21T03:34:25.247Z,59.70
2018-07-21T03:37:01.505Z,59.90
2018-07-21T03:39:42.663Z,59.90
2018-07-21T03:42:18.768Z,62.30
2018-07-21T03:44:54.990Z,60.00
2018-07-21T03:47:31.352Z,59.80
2018-07-21T03:50:07.643Z,59.90
2018-07-21T03:52:44.046Z,60.40
2018-07-21T03:55:20.475Z,60.60
2018-07-21T03:57:56.842Z,61.30
2018-07-21T04:00:33.149Z,62.20
2018-07-21T04:03:09.492Z,62.00
2018-07-21T04:05:45.695Z,62.30
2018-07-21T04:08:21.823Z,62.20
2018-07-21T04:10:58.147Z,62.50
2018-07-21T04:13:34.539Z,62.20
2018-07-21T04:16:10.878Z,62.10
2018-07-21T04:18:47.164Z,62.10
2018-07-21T04:21:23.406Z,61.50
2018-07-21T04:23:59.707Z,60.90
2018-07-21T04:26:36.230Z,60.30
2018-07-21T04:29:12.526Z,60.30
2018-07-21T04:31:48.889Z,59.50
2018-07-21T04:34:25.152Z,58.70
2018-07-21T04:37:01.571Z,58.30
2018-07-21T04:39:37.935Z,57.90
2018-07-21T04:42:14.248Z,58.10
2018-07-21T04:44:50.531Z,58.10
2018-07-21T04:47:26.823Z,58.40
2018-07-21T04:50:03.205Z,57.50
2018-07-21T04:52:39.415Z,57.60
2018-07-21T04:55:15.721Z,57.70
2018-07-21T04:57:51.916Z,57.40
2018-07-21T05:00:28.427Z,57.20
2018-07-21T05:03:05.427Z,56.90
2018-07-21T05:05:41.835Z,56.70
2018-07-21T05:08:18.042Z,57.20
2018-07-21T05:10:54.171Z,54.60
2018-07-21T05:13:30.412Z,55.80
2018-07-21T05:16:06.976Z,54.90
2018-07-21T05:18:43.419Z,55.90
2018-07-21T05:21:19.973Z,55.40
2018-07-21T05:23:56.372Z,56.10
2018-07-21T05:26:32.834Z,56.40
2018-07-21T05:29:09.280Z,55.70
2018-07-21T05:31:45.594Z,56.10
2018-07-21T05:34:21.957Z,56.10
2018-07-21T05:36:58.268Z,54.80
2018-07-21T05:39:34.545Z,55.00
2018-07-21T05:42:10.944Z,54.40
2018-07-21T05:44:47.187Z,55.40
2018-07-21T05:47:23.638Z,55.10
2018-07-21T05:50:00.000Z,55.50
2018-07-21T05:52:36.342Z,55.00
2018-07-21T05:55:12.628Z,54.70
2018-07-21T05:57:49.002Z,55.10
2018-07-21T06:00:25.289Z,54.30
2018-07-21T06:03:02.234Z,53.90
2018-07-21T06:05:38.448Z,54.50
2018-07-21T06:08:14.742Z,53.80
2018-07-21T06:10:51.163Z,54.00
2018-07-21T06:13:27.464Z,53.20
2018-07-21T06:16:03.722Z,52.60
2018-07-21T06:18:40.114Z,53.30
2018-07-21T06:21:16.330Z,53.80
2018-07-21T06:23:52.807Z,53.90
2018-07-21T06:26:29.148Z,54.90
2018-07-21T06:29:05.600Z,54.70
2018-07-21T06:31:41.976Z,55.20
2018-07-21T06:34:18.159Z,54.50
2018-07-21T06:36:54.459Z,53.90
2018-07-21T06:39:30.740Z,53.40
2018-07-21T06:42:07.128Z,52.90
2018-07-21T06:44:43.815Z,53.40
2018-07-21T06:47:20.009Z,53.80
2018-07-21T06:49:56.303Z,53.70
2018-07-21T06:52:32.539Z,53.80
2018-07-21T06:55:12.075Z,53.70
2018-07-21T06:57:48.220Z,54.00
2018-07-21T07:00:24.628Z,53.50
2018-07-21T07:03:00.939Z,53.90
2018-07-21T07:05:37.283Z,54.20
2018-07-21T07:08:13.649Z,53.90
2018-07-21T07:10:49.932Z,54.10
2018-07-21T07:13:26.212Z,54.30
2018-07-21T07:16:02.629Z,54.90
2018-07-21T07:18:39.489Z,55.10
2018-07-21T07:21:15.974Z,54.70
2018-07-21T07:23:52.303Z,55.40
2018-07-21T07:26:28.614Z,55.60
2018-07-21T07:29:05.239Z,55.60
2018-07-21T07:31:41.451Z,55.50
2018-07-21T07:34:17.864Z,54.30
2018-07-21T07:36:54.212Z,54.60
2018-07-21T07:39:30.461Z,51.70
2018-07-21T07:42:06.979Z,51.60
2018-07-21T07:44:43.263Z,51.70
2018-07-21T07:47:19.743Z,50.20
2018-07-21T07:49:56.131Z,52.20
2018-07-21T07:52:32.303Z,51.60
2018-07-21T07:55:08.632Z,50.70
2018-07-21T07:57:44.959Z,51.00
2018-07-21T08:00:21.361Z,51.10
2018-07-21T08:02:57.946Z,51.70
2018-07-21T08:05:34.596Z,51.80
2018-07-21T08:08:10.828Z,51.20
2018-07-21T08:10:47.236Z,52.20
2018-07-21T08:13:23.551Z,51.30
2018-07-21T08:15:59.774Z,51.00
2018-07-21T08:18:36.156Z,50.60
2018-07-21T08:21:12.612Z,49.90
2018-07-21T08:23:48.857Z,50.90
2018-07-21T08:26:25.256Z,50.90
2018-07-21T08:29:01.740Z,50.10
2018-07-21T08:31:38.126Z,49.10
2018-07-21T08:34:14.444Z,48.60
2018-07-21T08:36:50.729Z,48.00
2018-07-21T08:39:27.150Z,48.80
2018-07-21T08:42:03.512Z,47.60
2018-07-21T08:44:39.919Z,46.60
2018-07-21T08:47:16.261Z,47.00
2018-07-21T08:49:52.686Z,47.00
2018-07-21T08:52:29.033Z,47.00
2018-07-21T08:55:05.467Z,47.80
2018-07-21T08:57:41.775Z,48.10
2018-07-21T09:00:22.112Z,48.00
2018-07-21T09:02:58.543Z,48.20
2018-07-21T09:05:34.999Z,49.40
2018-07-21T09:08:11.671Z,47.90
2018-07-21T09:10:47.843Z,48.50
2018-07-21T09:13:24.188Z,48.70
2018-07-21T09:16:00.442Z,49.50
2018-07-21T09:18:36.869Z,50.40
2018-07-21T09:21:13.231Z,51.20
2018-07-21T09:23:49.523Z,52.40
2018-07-21T09:26:25.815Z,53.80
2018-07-21T09:29:02.177Z,53.50
2018-07-21T09:31:38.612Z,53.50
2018-07-21T09:34:15.036Z,53.90
2018-07-21T09:36:51.319Z,55.10
2018-07-21T09:39:27.717Z,55.60
2018-07-21T09:44:40.302Z,55.30
2018-07-21T09:47:16.579Z,55.30
2018-07-21T09:49:52.842Z,55.20
2018-07-21T09:52:29.294Z,55.50
2018-07-21T09:55:06.229Z,56.20
2018-07-21T09:57:42.511Z,57.10
2018-07-21T10:00:23.948Z,57.50
2018-07-21T10:03:00.236Z,57.60
2018-07-21T10:05:36.511Z,58.60
2018-07-21T10:08:11.879Z,59.00
2018-07-21T10:10:47.090Z,59.60
2018-07-21T10:13:23.128Z,60.90
2018-07-21T10:15:59.491Z,61.40
2018-07-21T10:18:35.797Z,61.50
2018-07-21T10:21:12.112Z,63.90
2018-07-21T10:23:48.550Z,61.50
2018-07-21T10:26:30.114Z,62.30
2018-07-21T10:29:07.489Z,63.20
2018-07-21T10:31:44.645Z,63.70
2018-07-21T10:34:20.891Z,63.50
2018-07-21T10:36:57.173Z,63.20
2018-07-21T10:39:33.524Z,64.90
2018-07-21T10:42:09.952Z,63.50
2018-07-21T10:44:46.289Z,63.90
2018-07-21T10:47:22.601Z,64.00
2018-07-21T10:49:59.011Z,65.80
2018-07-21T10:52:35.944Z,66.50
2018-07-21T10:55:12.281Z,67.50
2018-07-21T10:57:48.511Z,67.80
2018-07-21T11:00:24.920Z,69.00
2018-07-21T11:03:01.336Z,69.30
2018-07-21T11:05:37.785Z,70.00
2018-07-21T11:08:14.108Z,71.20
2018-07-21T11:10:50.499Z,70.90
2018-07-21T11:13:26.829Z,72.00
2018-07-21T11:16:03.220Z,72.60
2018-07-21T11:18:39.610Z,72.60
2018-07-21T11:21:16.054Z,73.60
2018-07-21T11:23:52.218Z,74.50
2018-07-21T11:26:28.531Z,75.40
2018-07-21T11:29:04.854Z,75.80
2018-07-21T11:31:41.440Z,75.30
2018-07-21T11:34:17.757Z,76.50
2018-07-21T11:36:54.083Z,73.20
2018-07-21T11:39:30.391Z,75.40
2018-07-21T11:42:06.899Z,75.00
2018-07-21T11:44:43.470Z,74.30
2018-07-21T11:47:19.779Z,74.20
2018-07-21T11:49:56.057Z,73.70
2018-07-21T11:52:32.346Z,73.30
2018-07-21T11:55:08.734Z,74.40
2018-07-21T11:57:45.108Z,74.80
2018-07-21T12:00:21.421Z,74.40
2018-07-21T12:02:57.573Z,74.80
2018-07-21T12:05:34.077Z,76.00
2018-07-21T12:08:10.321Z,74.00
2018-07-21T12:10:46.657Z,73.60
2018-07-21T12:13:22.953Z,74.40
2018-07-21T12:15:59.221Z,75.70
2018-07-21T12:18:35.554Z,75.80
2018-07-21T12:21:11.917Z,75.60
2018-07-21T12:23:48.195Z,75.90
2018-07-21T12:26:24.606Z,76.60
2018-07-21T12:29:00.844Z,76.30
2018-07-21T12:31:37.147Z,75.60
2018-07-21T12:34:13.540Z,74.70
2018-07-21T12:36:49.780Z,73.60
2018-07-21T12:39:26.087Z,73.10
2018-07-21T12:42:02.383Z,71.90
2018-07-21T12:44:38.666Z,71.60
2018-07-21T12:47:15.014Z,71.80
2018-07-21T12:49:51.340Z,72.10
2018-07-21T12:52:27.589Z,72.60
2018-07-21T12:55:04.221Z,72.50
2018-07-21T12:57:40.694Z,71.90
2018-07-21T13:00:16.821Z,71.50
2018-07-21T13:02:53.118Z,72.10
2018-07-21T13:05:29.484Z,72.00
2018-07-21T13:08:06.021Z,71.80
2018-07-21T13:10:42.303Z,71.30
2018-07-21T13:13:18.653Z,72.00
2018-07-21T13:15:54.960Z,71.20
2018-07-21T13:18:31.268Z,71.30
2018-07-21T13:21:07.731Z,70.00
2018-07-21T13:23:43.864Z,71.60
2018-07-21T13:26:20.199Z,69.60
2018-07-21T13:28:56.407Z,69.80
2018-07-21T13:31:35.796Z,70.30
2018-07-21T13:34:12.052Z,69.50
2018-07-21T13:36:48.353Z,69.50
2018-07-21T13:39:24.752Z,69.50
2018-07-21T13:44:37.127Z,66.70
2018-07-21T13:47:13.532Z,67.10
2018-07-21T13:49:49.799Z,68.20
2018-07-21T13:52:26.193Z,67.50
2018-07-21T13:55:03.146Z,66.60
2018-07-21T13:57:39.520Z,66.20
2018-07-21T14:00:15.954Z,66.60
2018-07-21T14:02:52.201Z,65.70
2018-07-21T14:05:28.588Z,65.20
2018-07-21T14:08:04.886Z,65.10
2018-07-21T14:10:41.314Z,65.80
2018-07-21T14:13:17.679Z,65.70
2018-07-21T14:15:54.103Z,65.20
2018-07-21T14:18:30.568Z,64.80
2018-07-21T14:21:06.822Z,65.80
2018-07-21T14:23:43.272Z,64.00
2018-07-21T14:26:19.557Z,64.10
2018-07-21T14:28:55.904Z,63.50
2018-07-21T14:31:32.241Z,64.20
2018-07-21T14:34:08.497Z,63.00
2018-07-21T14:36:44.715Z,62.30
2018-07-21T14:39:21.020Z,60.50
2018-07-21T14:41:57.240Z,60.70
2018-07-21T14:44:33.607Z,60.40
2018-07-21T14:47:10.046Z,61.50
2018-07-21T14:49:46.155Z,60.30
2018-07-21T14:52:22.360Z,60.00
2018-07-21T14:54:58.676Z,60.30
2018-07-21T14:57:35.008Z,59.70
2018-07-21T15:00:11.191Z,60.30
2018-07-21T15:02:47.480Z,60.90
2018-07-21T15:05:23.813Z,61.50
2018-07-21T15:08:00.035Z,62.40
2018-07-21T15:10:36.474Z,62.50
2018-07-21T15:13:12.956Z,62.10
2018-07-21T15:15:49.372Z,62.20
2018-07-21T15:18:25.751Z,62.60
2018-07-21T15:21:01.924Z,62.80
2018-07-21T15:23:38.491Z,63.00
2018-07-21T15:26:14.759Z,62.40
2018-07-21T15:28:51.035Z,62.50
2018-07-21T15:31:27.253Z,62.40
2018-07-21T15:34:03.728Z,62.00
2018-07-21T15:36:40.231Z,63.20
2018-07-21T15:39:16.590Z,63.00
2018-07-21T15:41:52.895Z,63.00
2018-07-21T15:44:29.265Z,64.60
2018-07-21T15:47:05.810Z,63.90
2018-07-21T15:49:42.252Z,63.90
2018-07-21T15:52:18.547Z,63.40
2018-07-21T15:54:54.951Z,63.70
2018-07-21T15:57:31.385Z,63.40
2018-07-21T16:00:08.342Z,63.40
2018-07-21T16:02:44.633Z,63.90
2018-07-21T16:05:20.923Z,64.00
2018-07-21T16:07:57.189Z,64.60
2018-07-21T16:10:33.618Z,65.10
2018-07-21T16:13:10.016Z,65.20
2018-07-21T16:15:46.344Z,66.00
2018-07-21T16:18:22.615Z,66.30
2018-07-21T16:20:59.028Z,65.70
2018-07-21T16:26:11.352Z,65.50
2018-07-21T16:28:47.716Z,66.20
2018-07-21T16:31:24.008Z,66.50
2018-07-21T16:34:00.337Z,67.40
2018-07-21T16:36:36.739Z,67.50
2018-07-21T16:39:13.044Z,68.30
2018-07-21T16:41:49.399Z,67.80
2018-07-21T16:44:25.816Z,67.60
2018-07-21T16:47:02.172Z,67.80
2018-07-21T16:49:38.566Z,67.00
2018-07-21T16:52:14.851Z,66.00
2018-07-21T16:54:51.218Z,66.10
2018-07-21T16:57:27.331Z,66.90
2018-07-21T17:00:03.882Z,67.60
2018-07-21T17:02:40.336Z,68.00
2018-07-21T17:05:16.759Z,68.10
2018-07-21T17:07:52.934Z,68.30
2018-07-21T17:10:29.307Z,68.70
2018-07-21T17:13:05.773Z,68.80
2018-07-21T17:15:42.104Z,68.20
2018-07-21T17:18:18.477Z,68.40
2018-07-21T17:23:30.724Z,67.30
2018-07-21T17:26:07.172Z,67.60
2018-07-21T17:28:43.405Z,68.00
2018-07-21T17:31:19.751Z,68.40
2018-07-21T17:33:56.183Z,68.20
2018-07-21T17:36:33.949Z,68.70
2018-07-21T17:39:11.507Z,68.60
2018-07-21T17:41:47.691Z,68.80
2018-07-21T17:44:23.887Z,68.20
2018-07-21T17:47:00.153Z,68.20
2018-07-21T17:49:36.494Z,68.60
2018-07-21T17:52:12.825Z,69.20
2018-07-21T17:54:49.072Z,68.90
2018-07-21T17:57:25.322Z,68.60
2018-07-21T18:00:01.557Z,68.40
2018-07-21T18:02:38.016Z,68.00
2018-07-21T18:05:14.491Z,68.60
2018-07-21T18:07:50.860Z,67.90
2018-07-21T18:10:27.211Z,67.90
2018-07-21T18:13:04.147Z,67.10
2018-07-21T18:15:40.493Z,67.40
2018-07-21T18:18:16.920Z,68.00
2018-07-21T18:20:53.243Z,66.90
2018-07-21T18:23:29.488Z,67.20
2018-07-21T18:26:05.989Z,67.80
2018-07-21T18:28:42.348Z,67.60
2018-07-21T18:31:18.951Z,67.30
2018-07-21T18:33:55.329Z,67.00
2018-07-21T18:36:31.669Z,65.60
2018-07-21T18:39:10.823Z,63.80
2018-07-21T18:41:47.130Z,63.30
2018-07-21T18:44:23.846Z,63.10
2018-07-21T18:47:00.914Z,63.40
2018-07-21T18:49:37.250Z,64.20
2018-07-21T18:52:13.823Z,64.60
2018-07-21T18:54:51.059Z,65.30
2018-07-21T18:57:28.184Z,65.90
2018-07-21T19:00:05.029Z,66.30
2018-07-21T19:02:41.561Z,67.40
2018-07-21T19:05:18.097Z,66.30
2018-07-21T19:07:56.398Z,66.30
2018-07-21T19:10:34.868Z,67.60
2018-07-21T19:13:11.146Z,70.00
2018-07-21T19:15:53.092Z,67.60
2018-07-21T19:18:29.468Z,68.90
2018-07-21T19:21:10.864Z,69.70
2018-07-21T19:23:48.748Z,69.70
2018-07-21T19:26:30.287Z,70.90
2018-07-21T19:29:06.868Z,70.10
2018-07-21T19:31:49.309Z,70.10
2018-07-21T19:34:25.545Z,72.00
2018-07-21T19:37:01.907Z,71.60
2018-07-21T19:39:38.275Z,72.30
2018-07-21T19:42:14.584Z,72.60
2018-07-21T19:44:50.920Z,73.20
2018-07-21T19:47:27.440Z,73.60
2018-07-21T19:50:03.991Z,73.40
2018-07-21T19:52:40.839Z,73.40
2018-07-21T19:55:17.063Z,74.20
2018-07-21T19:57:53.404Z,74.50
2018-07-21T20:00:29.799Z,74.30
2018-07-21T20:03:06.652Z,74.80
2018-07-21T20:05:43.054Z,75.20
2018-07-21T20:08:19.317Z,75.90
2018-07-21T20:10:55.736Z,76.60
2018-07-21T20:13:32.124Z,76.60
2018-07-21T20:16:08.535Z,77.00
2018-07-21T20:18:44.796Z,77.40
2018-07-21T20:21:21.112Z,77.70
2018-07-21T20:23:57.401Z,77.80
2018-07-21T20:26:33.909Z,78.00
2018-07-21T20:29:10.074Z,78.40
2018-07-21T20:31:46.363Z,77.80
2018-07-21T20:34:22.871Z,79.00
2018-07-21T20:36:59.246Z,78.00
2018-07-21T20:39:35.741Z,78.40
2018-07-21T20:42:12.246Z,78.00
2018-07-21T20:44:48.369Z,79.30
2018-07-21T20:47:24.786Z,79.10
2018-07-21T20:50:01.147Z,79.30
2018-07-21T20:52:37.471Z,79.60
2018-07-21T20:55:13.846Z,80.70
2018-07-21T20:57:50.151Z,81.50
2018-07-21T21:00:26.508Z,82.20
2018-07-21T21:03:03.157Z,82.50
2018-07-21T21:05:39.511Z,82.70
2018-07-21T21:08:15.936Z,83.20
2018-07-21T21:10:52.120Z,82.90
2018-07-21T21:13:28.503Z,83.50
2018-07-21T21:16:04.972Z,83.10
2018-07-21T21:18:41.339Z,83.60
2018-07-21T21:21:17.767Z,83.20
2018-07-21T21:23:54.121Z,83.70
2018-07-21T21:26:30.440Z,83.70
2018-07-21T21:29:06.905Z,84.20
2018-07-21T21:31:43.197Z,84.40
2018-07-21T21:34:19.294Z,84.50
2018-07-21T21:36:55.612Z,84.90
2018-07-21T21:39:31.927Z,85.60
2018-07-21T21:42:08.555Z,86.30
2018-07-21T21:44:44.658Z,85.80
2018-07-21T21:47:21.011Z,85.60
2018-07-21T21:49:57.364Z,85.20
2018-07-21T21:52:33.681Z,84.80
2018-07-21T21:55:09.993Z,85.10
2018-07-21T21:57:46.411Z,84.30
2018-07-21T22:00:22.711Z,84.80
2018-07-21T22:02:59.036Z,85.20
2018-07-21T22:05:35.611Z,85.30
2018-07-21T22:08:12.003Z,85.60
2018-07-21T22:10:48.344Z,85.50
2018-07-21T22:13:24.605Z,84.50
2018-07-21T22:16:01.172Z,83.50
2018-07-21T22:18:37.630Z,82.70
2018-07-21T22:21:14.011Z,83.80
2018-07-21T22:23:50.407Z,84.40
2018-07-21T22:26:26.665Z,85.20
2018-07-21T22:29:03.057Z,85.70
2018-07-21T22:31:39.452Z,85.70
2018-07-21T22:34:15.791Z,85.40
2018-07-21T22:36:52.131Z,85.90
2018-07-21T22:39:28.523Z,85.90
2018-07-21T22:42:04.968Z,86.30
2018-07-21T22:44:41.344Z,85.70
2018-07-21T22:47:17.664Z,85.70
2018-07-21T22:49:53.890Z,85.70
2018-07-21T22:52:29.991Z,85.90
2018-07-21T22:55:06.287Z,85.70
2018-07-21T22:57:42.703Z,85.40
2018-07-21T23:00:19.014Z,86.10
2018-07-21T23:02:55.323Z,86.40
2018-07-21T23:05:31.799Z,85.80
2018-07-21T23:08:08.285Z,85.90
2018-07-21T23:10:44.573Z,85.30
2018-07-21T23:13:20.837Z,85.70
2018-07-21T23:15:57.012Z,85.00
2018-07-21T23:18:33.327Z,85.00
2018-07-21T23:21:09.656Z,85.60
2018-07-21T23:23:46.006Z,86.20
2018-07-21T23:26:22.359Z,86.20
2018-07-21T23:28:58.582Z,85.70
2018-07-21T23:31:35.044Z,85.60
2018-07-21T23:34:11.296Z,85.50
2018-07-21T23:36:50.076Z,85.70
2018-07-21T23:39:26.232Z,85.60
2018-07-21T23:42:02.476Z,85.00
2018-07-21T23:44:39.558Z,83.60
2018-07-21T23:47:15.706Z,82.40
2018-07-21T23:49:52.035Z,83.00
2018-07-21T23:52:28.459Z,83.10
2018-07-21T23:55:06.623Z,84.20
2018-07-21T23:57:42.884Z,83.50
